Archival Weather

Chicago O'Hare International

Chicago, Illinois (KORD)

Report from: Monday, January 23, 2023 2:51 AM CST
Current time: Thursday, July 18, 2024 8:58 PM CDT

Current weather – Weather history – Daily summaries
Weather forecast

Present weatherLight snow, mist
Temperature-4.4°C (24.1°F)
Wind chill-9.4°C (15.2°F)
Dew point-6.7°C (19.9°F)
Winds 7 kts (3.6 m/s, 8.1 mph) West (280°)
Visibility6 mi. (9.7 km)
Clouds Ceiling: Overcast 500 ft. (152 m)
Altimeter30.00 in.Hg (1016 mB)
PrecipitiationTrace
Precip. events Drizzle ended 7:56 AM
Precip last 3 hoursTrace
Relative humidity84 %
Density altitude-2,450 ft. (-747 m)
Sea-level pressure101.7 kPa (1017 mB, 30.02 in.Hg)
Remarks System requires maintenance
Automated weather observing station with precipitation discriminator
Pressure rising more quickly
Flight conditions Instrument Meteorological Conditions
Raw dataKORD 230851Z 28007KT 6SM -SN BR OVC005 M04/M07 A3000 RMK AO2 FZDZE0756 SLP166 P0000 60000 I1000 I3000 T10441067 53017 $
An error has occurred. This application may no longer respond until reloaded. Reload 🗙